sensor_id;sensor_type;location;lat;lon;timestamp;temperature;humidity
1800;DHT22;919;48.274;12.292;2023-01-20T00:01:33;-1.40;99.90
1800;DHT22;919;48.274;12.292;2023-01-20T00:04:01;-1.30;99.90
1800;DHT22;919;48.274;12.292;2023-01-20T00:06:28;-1.40;99.90
1800;DHT22;919;48.274;12.292;2023-01-20T00:08:56;-1.30;99.90
1800;DHT22;919;48.274;12.292;2023-01-20T00:11:23;-1.40;99.90
1800;DHT22;919;48.274;12.292;2023-01-20T00:13:53;-1.40;99.90
1800;DHT22;919;48.274;12.292;2023-01-20T00:16:20;-1.40;99.90
1800;DHT22;919;48.274;12.292;2023-01-20T00:18:47;-1.40;99.90
1800;DHT22;919;48.274;12.292;2023-01-20T00:21:15;-1.40;99.90
1800;DHT22;919;48.274;12.292;2023-01-20T00:23:43;-1.40;99.90
1800;DHT22;919;48.274;12.292;2023-01-20T00:26:11;-1.40;99.90
1800;DHT22;919;48.274;12.292;2023-01-20T00:28:38;-1.40;99.90
1800;DHT22;919;48.274;12.292;2023-01-20T00:31:13;-1.30;99.90
1800;DHT22;919;48.274;12.292;2023-01-20T00:33:40;-1.30;99.90
1800;DHT22;919;48.274;12.292;2023-01-20T00:36:07;-1.50;99.90
1800;DHT22;919;48.274;12.292;2023-01-20T00:38:37;-1.50;99.90
1800;DHT22;919;48.274;12.292;2023-01-20T00:41:04;-1.40;99.90
1800;DHT22;919;48.274;12.292;2023-01-20T00:43:31;-1.50;99.90
1800;DHT22;919;48.274;12.292;2023-01-20T00:45:58;-1.50;99.90
1800;DHT22;919;48.274;12.292;2023-01-20T00:48:25;-1.50;99.90
1800;DHT22;919;48.274;12.292;2023-01-20T00:50:51;-1.50;99.90
1800;DHT22;919;48.274;12.292;2023-01-20T00:53:18;-1.60;99.90
1800;DHT22;919;48.274;12.292;2023-01-20T00:55:46;-1.60;99.90
1800;DHT22;919;48.274;12.292;2023-01-20T00:58:13;-1.70;99.90
1800;DHT22;919;48.274;12.292;2023-01-20T01:00:39;-1.70;99.90
1800;DHT22;919;48.274;12.292;2023-01-20T01:03:06;-1.60;99.90
1800;DHT22;919;48.274;12.292;2023-01-20T01:05:35;-1.60;99.90
1800;DHT22;919;48.274;12.292;2023-01-20T01:08:02;-1.50;99.90
1800;DHT22;919;48.274;12.292;2023-01-20T01:10:29;-1.50;99.90
1800;DHT22;919;48.274;12.292;2023-01-20T01:12:57;-1.50;99.90
1800;DHT22;919;48.274;12.292;2023-01-20T01:15:24;-1.50;99.90
1800;DHT22;919;48.274;12.292;2023-01-20T01:17:51;-1.50;99.90
1800;DHT22;919;48.274;12.292;2023-01-20T01:20:18;-1.40;99.90
1800;DHT22;919;48.274;12.292;2023-01-20T01:22:45;-1.40;99.90
1800;DHT22;919;48.274;12.292;2023-01-20T01:25:12;-1.40;99.90
1800;DHT22;919;48.274;12.292;2023-01-20T01:27:39;-1.40;99.90
1800;DHT22;919;48.274;12.292;2023-01-20T01:30:08;-1.40;99.90
1800;DHT22;919;48.274;12.292;2023-01-20T01:32:35;-1.40;99.90
1800;DHT22;919;48.274;12.292;2023-01-20T01:35:01;-1.40;99.90
1800;DHT22;919;48.274;12.292;2023-01-20T01:37:28;-1.40;99.90
1800;DHT22;919;48.274;12.292;2023-01-20T01:39:55;-1.40;99.90
1800;DHT22;919;48.274;12.292;2023-01-20T01:42:24;-1.40;99.90
1800;DHT22;919;48.274;12.292;2023-01-20T01:45:23;-1.40;99.90
1800;DHT22;919;48.274;12.292;2023-01-20T01:47:55;-1.40;99.90
1800;DHT22;919;48.274;12.292;2023-01-20T01:50:26;-1.40;99.90
1800;DHT22;919;48.274;12.292;2023-01-20T01:52:54;-1.50;99.90
1800;DHT22;919;48.274;12.292;2023-01-20T01:55:24;-1.50;99.90
1800;DHT22;919;48.274;12.292;2023-01-20T01:57:52;-1.40;99.90
1800;DHT22;919;48.274;12.292;2023-01-20T02:00:20;-1.40;99.90
1800;DHT22;919;48.274;12.292;2023-01-20T02:02:48;-1.40;99.90
1800;DHT22;919;48.274;12.292;2023-01-20T02:05:16;-1.50;99.90
1800;DHT22;919;48.274;12.292;2023-01-20T02:07:45;-1.40;99.90
1800;DHT22;919;48.274;12.292;2023-01-20T02:10:13;-1.50;99.90
1800;DHT22;919;48.274;12.292;2023-01-20T02:12:40;-1.60;99.90
1800;DHT22;919;48.274;12.292;2023-01-20T02:15:08;-1.60;99.90
1800;DHT22;919;48.274;12.292;2023-01-20T02:17:40;-1.70;99.90
1800;DHT22;919;48.274;12.292;2023-01-20T02:20:36;-1.70;99.90
1800;DHT22;919;48.274;12.292;2023-01-20T02:23:10;-1.70;99.90
1800;DHT22;919;48.274;12.292;2023-01-20T02:25:59;-1.60;99.90
1800;DHT22;919;48.274;12.292;2023-01-20T02:28:55;-1.60;99.90
1800;DHT22;919;48.274;12.292;2023-01-20T02:34:39;-1.50;99.90
1800;DHT22;919;48.274;12.292;2023-01-20T02:37:12;-1.50;99.90
1800;DHT22;919;48.274;12.292;2023-01-20T02:39:45;-1.50;99.90
1800;DHT22;919;48.274;12.292;2023-01-20T02:42:17;-1.50;99.90
1800;DHT22;919;48.274;12.292;2023-01-20T02:44:51;-1.50;99.90
1800;DHT22;919;48.274;12.292;2023-01-20T02:47:25;-1.50;99.90
1800;DHT22;919;48.274;12.292;2023-01-20T02:49:56;-1.50;99.90
1800;DHT22;919;48.274;12.292;2023-01-20T02:52:26;-1.50;99.90
1800;DHT22;919;48.274;12.292;2023-01-20T02:54:56;-1.50;99.90
1800;DHT22;919;48.274;12.292;2023-01-20T02:57:26;-1.50;99.90
1800;DHT22;919;48.274;12.292;2023-01-20T03:00:00;-1.50;99.90
1800;DHT22;919;48.274;12.292;2023-01-20T03:02:30;-1.50;99.90
1800;DHT22;919;48.274;12.292;2023-01-20T03:05:02;-1.50;99.90
1800;DHT22;919;48.274;12.292;2023-01-20T03:07:30;-1.40;99.90
1800;DHT22;919;48.274;12.292;2023-01-20T03:10:03;-1.40;99.90
1800;DHT22;919;48.274;12.292;2023-01-20T03:12:35;-1.40;99.90
1800;DHT22;919;48.274;12.292;2023-01-20T03:15:05;-1.40;99.90
1800;DHT22;919;48.274;12.292;2023-01-20T03:17:34;-1.30;99.90
1800;DHT22;919;48.274;12.292;2023-01-20T03:20:01;-1.30;99.90
1800;DHT22;919;48.274;12.292;2023-01-20T03:22:29;-1.30;99.90
1800;DHT22;919;48.274;12.292;2023-01-20T03:24:57;-1.30;99.90
1800;DHT22;919;48.274;12.292;2023-01-20T03:27:24;-1.30;99.90
1800;DHT22;919;48.274;12.292;2023-01-20T03:29:51;-1.20;99.90
1800;DHT22;919;48.274;12.292;2023-01-20T03:32:18;-1.20;99.90
1800;DHT22;919;48.274;12.292;2023-01-20T03:34:52;-1.20;99.90
1800;DHT22;919;48.274;12.292;2023-01-20T03:37:20;-1.20;99.90
1800;DHT22;919;48.274;12.292;2023-01-20T03:39:47;-1.10;99.90
1800;DHT22;919;48.274;12.292;2023-01-20T03:42:17;-1.10;99.90
1800;DHT22;919;48.274;12.292;2023-01-20T03:44:58;-1.10;99.90
1800;DHT22;919;48.274;12.292;2023-01-20T03:47:31;-1.10;99.90
1800;DHT22;919;48.274;12.292;2023-01-20T03:50:07;-1.10;99.90
1800;DHT22;919;48.274;12.292;2023-01-20T03:52:39;-1.00;99.90
1800;DHT22;919;48.274;12.292;2023-01-20T03:55:13;-1.00;99.90
1800;DHT22;919;48.274;12.292;2023-01-20T03:57:44;-1.00;99.90
1800;DHT22;919;48.274;12.292;2023-01-20T04:00:15;-1.00;99.90
1800;DHT22;919;48.274;12.292;2023-01-20T04:02:43;-1.00;99.90
1800;DHT22;919;48.274;12.292;2023-01-20T04:05:11;-1.10;99.90
1800;DHT22;919;48.274;12.292;2023-01-20T04:07:39;-1.10;99.90
1800;DHT22;919;48.274;12.292;2023-01-20T04:10:11;-1.10;99.90
1800;DHT22;919;48.274;12.292;2023-01-20T04:12:39;-1.10;99.90
1800;DHT22;919;48.274;12.292;2023-01-20T04:15:07;-1.10;99.90
1800;DHT22;919;48.274;12.292;2023-01-20T04:17:34;-1.10;99.90
1800;DHT22;919;48.274;12.292;2023-01-20T04:20:05;-1.00;99.90
1800;DHT22;919;48.274;12.292;2023-01-20T04:22:39;-1.00;99.90
1800;DHT22;919;48.274;12.292;2023-01-20T04:25:13;-1.00;99.90
1800;DHT22;919;48.274;12.292;2023-01-20T04:27:40;-1.00;99.90
1800;DHT22;919;48.274;12.292;2023-01-20T04:30:08;-1.00;99.90
1800;DHT22;919;48.274;12.292;2023-01-20T04:32:35;-1.00;99.90
1800;DHT22;919;48.274;12.292;2023-01-20T04:35:01;-1.00;99.90
1800;DHT22;919;48.274;12.292;2023-01-20T04:37:28;-1.00;99.90
1800;DHT22;919;48.274;12.292;2023-01-20T04:39:56;-1.00;99.90
1800;DHT22;919;48.274;12.292;2023-01-20T04:42:23;-1.10;99.90
1800;DHT22;919;48.274;12.292;2023-01-20T04:44:49;-1.10;99.90
1800;DHT22;919;48.274;12.292;2023-01-20T04:47:16;-1.10;99.90
1800;DHT22;919;48.274;12.292;2023-01-20T04:49:43;-1.00;99.90
1800;DHT22;919;48.274;12.292;2023-01-20T04:52:10;-1.00;99.90
1800;DHT22;919;48.274;12.292;2023-01-20T04:54:36;-1.00;99.90
1800;DHT22;919;48.274;12.292;2023-01-20T04:57:05;-1.00;99.90
1800;DHT22;919;48.274;12.292;2023-01-20T04:59:31;-1.00;99.90
1800;DHT22;919;48.274;12.292;2023-01-20T05:01:58;-0.90;99.90
1800;DHT22;919;48.274;12.292;2023-01-20T05:04:25;-0.90;99.90
1800;DHT22;919;48.274;12.292;2023-01-20T05:06:51;-0.90;99.90
1800;DHT22;919;48.274;12.292;2023-01-20T05:09:18;-0.90;99.90
1800;DHT22;919;48.274;12.292;2023-01-20T05:11:45;-0.90;99.90
1800;DHT22;919;48.274;12.292;2023-01-20T05:14:13;-0.90;99.90
1800;DHT22;919;48.274;12.292;2023-01-20T05:16:40;-0.90;99.90
1800;DHT22;919;48.274;12.292;2023-01-20T05:19:07;-0.90;99.90
1800;DHT22;919;48.274;12.292;2023-01-20T05:21:33;-0.90;99.90
1800;DHT22;919;48.274;12.292;2023-01-20T05:24:00;-0.90;99.90
1800;DHT22;919;48.274;12.292;2023-01-20T05:26:27;-0.90;99.90
1800;DHT22;919;48.274;12.292;2023-01-20T05:28:53;-0.80;99.90
1800;DHT22;919;48.274;12.292;2023-01-20T05:31:22;-0.80;99.90
1800;DHT22;919;48.274;12.292;2023-01-20T05:33:48;-0.90;99.90
1800;DHT22;919;48.274;12.292;2023-01-20T05:36:15;-0.90;99.90
1800;DHT22;919;48.274;12.292;2023-01-20T05:38:42;-0.90;99.90
1800;DHT22;919;48.274;12.292;2023-01-20T05:41:09;-0.90;99.90
1800;DHT22;919;48.274;12.292;2023-01-20T05:43:36;-0.90;99.90
1800;DHT22;919;48.274;12.292;2023-01-20T05:46:03;-0.90;99.90
1800;DHT22;919;48.274;12.292;2023-01-20T05:48:31;-0.90;99.90
1800;DHT22;919;48.274;12.292;2023-01-20T05:50:57;-0.90;99.90
1800;DHT22;919;48.274;12.292;2023-01-20T05:53:24;-0.80;99.90
1800;DHT22;919;48.274;12.292;2023-01-20T05:55:57;-0.80;99.90
1800;DHT22;919;48.274;12.292;2023-01-20T05:58:24;-0.80;99.90
1800;DHT22;919;48.274;12.292;2023-01-20T06:00:51;-0.80;99.90
1800;DHT22;919;48.274;12.292;2023-01-20T06:03:18;-0.80;99.90
1800;DHT22;919;48.274;12.292;2023-01-20T06:05:45;-0.80;99.90
1800;DHT22;919;48.274;12.292;2023-01-20T06:08:13;-0.90;99.90
1800;DHT22;919;48.274;12.292;2023-01-20T06:10:40;-0.90;99.90
1800;DHT22;919;48.274;12.292;2023-01-20T06:13:07;-0.90;99.90
1800;DHT22;919;48.274;12.292;2023-01-20T06:15:34;-0.90;99.90
1800;DHT22;919;48.274;12.292;2023-01-20T06:18:00;-0.90;99.90
1800;DHT22;919;48.274;12.292;2023-01-20T06:20:27;-0.90;99.90
1800;DHT22;919;48.274;12.292;2023-01-20T06:22:55;-1.00;99.90
1800;DHT22;919;48.274;12.292;2023-01-20T06:25:22;-1.00;99.90
1800;DHT22;919;48.274;12.292;2023-01-20T06:27:49;-1.00;99.90
1800;DHT22;919;48.274;12.292;2023-01-20T06:30:16;-1.00;99.90
1800;DHT22;919;48.274;12.292;2023-01-20T06:32:45;-1.10;99.90
1800;DHT22;919;48.274;12.292;2023-01-20T06:35:12;-1.10;99.90
1800;DHT22;919;48.274;12.292;2023-01-20T06:37:39;-1.10;99.90
1800;DHT22;919;48.274;12.292;2023-01-20T06:40:08;-1.10;99.90
1800;DHT22;919;48.274;12.292;2023-01-20T06:42:35;-1.10;99.90
1800;DHT22;919;48.274;12.292;2023-01-20T06:45:02;-1.10;99.90
1800;DHT22;919;48.274;12.292;2023-01-20T06:47:29;-1.10;99.90
1800;DHT22;919;48.274;12.292;2023-01-20T06:49:55;-1.10;99.90
1800;DHT22;919;48.274;12.292;2023-01-20T06:52:22;-1.20;99.90
1800;DHT22;919;48.274;12.292;2023-01-20T06:54:49;-1.20;99.90
1800;DHT22;919;48.274;12.292;2023-01-20T06:57:17;-1.20;99.90
1800;DHT22;919;48.274;12.292;2023-01-20T06:59:44;-1.20;99.90
1800;DHT22;919;48.274;12.292;2023-01-20T07:02:11;-1.20;99.90
1800;DHT22;919;48.274;12.292;2023-01-20T07:04:38;-1.20;99.90
1800;DHT22;919;48.274;12.292;2023-01-20T07:07:04;-1.20;99.90
1800;DHT22;919;48.274;12.292;2023-01-20T07:09:31;-1.20;99.90
1800;DHT22;919;48.274;12.292;2023-01-20T07:11:58;-1.20;99.90
1800;DHT22;919;48.274;12.292;2023-01-20T07:14:26;-1.20;99.90
1800;DHT22;919;48.274;12.292;2023-01-20T07:16:52;-1.10;99.90
1800;DHT22;919;48.274;12.292;2023-01-20T07:19:19;-1.20;99.90
1800;DHT22;919;48.274;12.292;2023-01-20T07:21:45;-1.20;99.90
1800;DHT22;919;48.274;12.292;2023-01-20T07:24:12;-1.20;99.90
1800;DHT22;919;48.274;12.292;2023-01-20T07:26:39;-1.30;99.90
1800;DHT22;919;48.274;12.292;2023-01-20T07:29:06;-1.30;99.90
1800;DHT22;919;48.274;12.292;2023-01-20T07:31:34;-1.30;99.90
1800;DHT22;919;48.274;12.292;2023-01-20T07:34:01;-1.30;99.90
1800;DHT22;919;48.274;12.292;2023-01-20T07:36:27;-1.30;99.90
1800;DHT22;919;48.274;12.292;2023-01-20T07:38:54;-1.30;99.90
1800;DHT22;919;48.274;12.292;2023-01-20T07:41:21;-1.30;99.90
1800;DHT22;919;48.274;12.292;2023-01-20T07:43:49;-1.30;99.90
1800;DHT22;919;48.274;12.292;2023-01-20T07:46:17;-1.40;99.90
1800;DHT22;919;48.274;12.292;2023-01-20T07:48:45;-1.40;99.90
1800;DHT22;919;48.274;12.292;2023-01-20T07:51:14;-1.40;99.90
1800;DHT22;919;48.274;12.292;2023-01-20T07:53:42;-1.40;99.90
1800;DHT22;919;48.274;12.292;2023-01-20T07:56:12;-1.40;99.90
1800;DHT22;919;48.274;12.292;2023-01-20T07:58:39;-1.30;99.90
1800;DHT22;919;48.274;12.292;2023-01-20T08:01:07;-1.30;99.90
1800;DHT22;919;48.274;12.292;2023-01-20T08:03:34;-1.30;99.90
1800;DHT22;919;48.274;12.292;2023-01-20T08:06:02;-1.20;99.90
1800;DHT22;919;48.274;12.292;2023-01-20T08:08:29;-1.10;99.90
1800;DHT22;919;48.274;12.292;2023-01-20T08:10:57;-1.00;99.90
1800;DHT22;919;48.274;12.292;2023-01-20T08:13:24;-0.90;99.90
1800;DHT22;919;48.274;12.292;2023-01-20T08:15:50;-0.90;99.90
1800;DHT22;919;48.274;12.292;2023-01-20T08:18:17;-0.90;99.90
1800;DHT22;919;48.274;12.292;2023-01-20T08:20:44;-0.80;99.90
1800;DHT22;919;48.274;12.292;2023-01-20T08:23:12;-0.80;99.90
1800;DHT22;919;48.274;12.292;2023-01-20T08:25:38;-0.70;99.90
1800;DHT22;919;48.274;12.292;2023-01-20T08:28:05;-0.60;99.90
1800;DHT22;919;48.274;12.292;2023-01-20T08:30:32;-0.60;99.90
1800;DHT22;919;48.274;12.292;2023-01-20T08:32:59;-0.50;99.90
1800;DHT22;919;48.274;12.292;2023-01-20T08:38:01;-0.40;99.90
1800;DHT22;919;48.274;12.292;2023-01-20T08:40:30;-0.30;99.90
1800;DHT22;919;48.274;12.292;2023-01-20T08:42:56;-0.20;99.90
1800;DHT22;919;48.274;12.292;2023-01-20T08:45:23;-0.20;99.90
1800;DHT22;919;48.274;12.292;2023-01-20T08:47:50;-0.10;99.90
1800;DHT22;919;48.274;12.292;2023-01-20T08:50:17;-0.10;99.90
1800;DHT22;919;48.274;12.292;2023-01-20T08:52:47;0.00;99.90
1800;DHT22;919;48.274;12.292;2023-01-20T08:55:13;0.10;99.90
1800;DHT22;919;48.274;12.292;2023-01-20T08:57:41;0.20;99.90
1800;DHT22;919;48.274;12.292;2023-01-20T09:00:09;0.20;99.90
1800;DHT22;919;48.274;12.292;2023-01-20T09:02:36;0.30;99.90
1800;DHT22;919;48.274;12.292;2023-01-20T09:05:04;0.40;99.90
1800;DHT22;919;48.274;12.292;2023-01-20T09:07:31;0.40;99.90
1800;DHT22;919;48.274;12.292;2023-01-20T09:09:57;0.50;99.90
1800;DHT22;919;48.274;12.292;2023-01-20T09:12:24;0.50;99.90
1800;DHT22;919;48.274;12.292;2023-01-20T09:14:52;0.60;99.90
1800;DHT22;919;48.274;12.292;2023-01-20T09:17:19;0.60;99.90
1800;DHT22;919;48.274;12.292;2023-01-20T09:19:46;0.70;99.90
1800;DHT22;919;48.274;12.292;2023-01-20T09:22:12;0.80;99.90
1800;DHT22;919;48.274;12.292;2023-01-20T09:24:39;0.70;99.90
1800;DHT22;919;48.274;12.292;2023-01-20T09:27:06;0.80;99.90
1800;DHT22;919;48.274;12.292;2023-01-20T09:29:33;0.80;99.90
1800;DHT22;919;48.274;12.292;2023-01-20T09:32:03;0.90;99.90
1800;DHT22;919;48.274;12.292;2023-01-20T09:34:30;0.90;99.90
1800;DHT22;919;48.274;12.292;2023-01-20T09:36:58;0.90;99.90
1800;DHT22;919;48.274;12.292;2023-01-20T09:39:46;1.00;99.90
1800;DHT22;919;48.274;12.292;2023-01-20T09:42:43;1.10;99.90
1800;DHT22;919;48.274;12.292;2023-01-20T09:45:37;1.20;99.90
1800;DHT22;919;48.274;12.292;2023-01-20T09:48:12;1.30;99.90
1800;DHT22;919;48.274;12.292;2023-01-20T09:51:02;1.10;99.90
1800;DHT22;919;48.274;12.292;2023-01-20T09:53:57;1.10;99.90
1800;DHT22;919;48.274;12.292;2023-01-20T09:56:27;1.10;99.90
1800;DHT22;919;48.274;12.292;2023-01-20T09:58:58;1.00;99.90
1800;DHT22;919;48.274;12.292;2023-01-20T10:01:31;1.20;99.90
1800;DHT22;919;48.274;12.292;2023-01-20T10:04:08;1.20;99.90
1800;DHT22;919;48.274;12.292;2023-01-20T10:06:39;1.20;99.90
1800;DHT22;919;48.274;12.292;2023-01-20T10:09:11;1.20;99.90
1800;DHT22;919;48.274;12.292;2023-01-20T10:11:43;1.10;99.90
1800;DHT22;919;48.274;12.292;2023-01-20T10:14:15;1.10;99.90
1800;DHT22;919;48.274;12.292;2023-01-20T10:16:49;1.10;99.90
1800;DHT22;919;48.274;12.292;2023-01-20T10:19:22;1.20;99.90
1800;DHT22;919;48.274;12.292;2023-01-20T10:21:53;1.20;99.90
1800;DHT22;919;48.274;12.292;2023-01-20T10:24:27;1.20;99.90
1800;DHT22;919;48.274;12.292;2023-01-20T10:26:59;1.20;99.90
1800;DHT22;919;48.274;12.292;2023-01-20T10:29:29;1.40;99.90
1800;DHT22;919;48.274;12.292;2023-01-20T10:31:59;1.40;99.90
1800;DHT22;919;48.274;12.292;2023-01-20T10:34:32;1.40;99.90
1800;DHT22;919;48.274;12.292;2023-01-20T10:37:05;1.50;99.90
1800;DHT22;919;48.274;12.292;2023-01-20T10:39:39;1.50;99.90
1800;DHT22;919;48.274;12.292;2023-01-20T10:42:10;1.50;99.90
1800;DHT22;919;48.274;12.292;2023-01-20T10:44:38;1.60;99.90
1800;DHT22;919;48.274;12.292;2023-01-20T10:47:17;1.50;99.90
1800;DHT22;919;48.274;12.292;2023-01-20T10:50:19;1.50;99.90
1800;DHT22;919;48.274;12.292;2023-01-20T10:53:02;1.50;99.90
1800;DHT22;919;48.274;12.292;2023-01-20T10:55:41;1.70;99.90
1800;DHT22;919;48.274;12.292;2023-01-20T10:58:17;1.60;99.90
1800;DHT22;919;48.274;12.292;2023-01-20T11:00:46;1.70;99.90
1800;DHT22;919;48.274;12.292;2023-01-20T11:03:17;1.80;99.90
1800;DHT22;919;48.274;12.292;2023-01-20T11:05:47;1.90;99.90
1800;DHT22;919;48.274;12.292;2023-01-20T11:08:16;1.90;99.90
1800;DHT22;919;48.274;12.292;2023-01-20T11:10:43;2.10;99.90
1800;DHT22;919;48.274;12.292;2023-01-20T11:13:11;2.20;99.90
1800;DHT22;919;48.274;12.292;2023-01-20T11:15:40;2.40;99.90
1800;DHT22;919;48.274;12.292;2023-01-20T11:18:23;2.50;99.90
1800;DHT22;919;48.274;12.292;2023-01-20T11:20:57;2.40;99.90
1800;DHT22;919;48.274;12.292;2023-01-20T11:23:32;2.40;99.90
1800;DHT22;919;48.274;12.292;2023-01-20T11:26:01;2.60;99.90
1800;DHT22;919;48.274;12.292;2023-01-20T11:28:42;2.70;99.90
1800;DHT22;919;48.274;12.292;2023-01-20T11:31:10;2.90;99.90
1800;DHT22;919;48.274;12.292;2023-01-20T11:33:36;2.90;99.90
1800;DHT22;919;48.274;12.292;2023-01-20T11:36:06;2.90;99.90
1800;DHT22;919;48.274;12.292;2023-01-20T11:38:42;2.80;99.90
1800;DHT22;919;48.274;12.292;2023-01-20T11:41:17;3.10;99.90
1800;DHT22;919;48.274;12.292;2023-01-20T11:43:44;3.10;99.90
1800;DHT22;919;48.274;12.292;2023-01-20T11:46:23;3.10;99.90
1800;DHT22;919;48.274;12.292;2023-01-20T11:49:09;3.20;99.90
1800;DHT22;919;48.274;12.292;2023-01-20T11:51:54;2.80;99.90
1800;DHT22;919;48.274;12.292;2023-01-20T11:54:22;2.80;99.90
1800;DHT22;919;48.274;12.292;2023-01-20T11:56:52;2.80;99.90
1800;DHT22;919;48.274;12.292;2023-01-20T11:59:24;2.90;99.90
1800;DHT22;919;48.274;12.292;2023-01-20T12:01:57;2.70;99.90
1800;DHT22;919;48.274;12.292;2023-01-20T12:04:43;2.60;99.90
1800;DHT22;919;48.274;12.292;2023-01-20T12:07:21;2.60;99.90
1800;DHT22;919;48.274;12.292;2023-01-20T12:09:51;2.50;99.90
1800;DHT22;919;48.274;12.292;2023-01-20T12:12:26;2.30;99.90
1800;DHT22;919;48.274;12.292;2023-01-20T12:14:59;2.30;99.90
1800;DHT22;919;48.274;12.292;2023-01-20T12:17:36;2.20;99.90
1800;DHT22;919;48.274;12.292;2023-01-20T12:20:09;2.10;99.90
1800;DHT22;919;48.274;12.292;2023-01-20T12:22:44;2.10;99.90
1800;DHT22;919;48.274;12.292;2023-01-20T12:25:17;2.10;99.90
1800;DHT22;919;48.274;12.292;2023-01-20T12:27:50;2.00;99.90
1800;DHT22;919;48.274;12.292;2023-01-20T12:30:36;2.00;99.90
1800;DHT22;919;48.274;12.292;2023-01-20T12:33:14;1.80;99.90
1800;DHT22;919;48.274;12.292;2023-01-20T12:35:52;1.80;99.90
1800;DHT22;919;48.274;12.292;2023-01-20T12:38:24;1.80;99.90
1800;DHT22;919;48.274;12.292;2023-01-20T12:40:51;1.80;99.90
1800;DHT22;919;48.274;12.292;2023-01-20T12:43:39;1.90;99.90
1800;DHT22;919;48.274;12.292;2023-01-20T12:46:34;1.90;99.90
1800;DHT22;919;48.274;12.292;2023-01-20T12:49:20;1.90;99.90
1800;DHT22;919;48.274;12.292;2023-01-20T12:51:59;1.90;99.90
1800;DHT22;919;48.274;12.292;2023-01-20T12:54:48;1.90;99.90
1800;DHT22;919;48.274;12.292;2023-01-20T12:57:29;1.90;99.90
1800;DHT22;919;48.274;12.292;2023-01-20T13:00:11;1.90;99.90
1800;DHT22;919;48.274;12.292;2023-01-20T13:03:04;1.90;99.90
1800;DHT22;919;48.274;12.292;2023-01-20T13:05:46;1.80;99.90
1800;DHT22;919;48.274;12.292;2023-01-20T13:08:24;1.90;99.90
1800;DHT22;919;48.274;12.292;2023-01-20T13:11:04;1.80;99.90
1800;DHT22;919;48.274;12.292;2023-01-20T13:13:38;1.80;99.90
1800;DHT22;919;48.274;12.292;2023-01-20T13:16:12;1.80;99.90
1800;DHT22;919;48.274;12.292;2023-01-20T13:18:52;1.60;99.90
1800;DHT22;919;48.274;12.292;2023-01-20T13:21:21;1.50;99.90
1800;DHT22;919;48.274;12.292;2023-01-20T13:23:48;1.50;99.90
1800;DHT22;919;48.274;12.292;2023-01-20T13:26:17;1.50;99.90
1800;DHT22;919;48.274;12.292;2023-01-20T13:28:51;1.50;99.90
1800;DHT22;919;48.274;12.292;2023-01-20T13:31:41;1.40;99.90
1800;DHT22;919;48.274;12.292;2023-01-20T13:34:33;1.30;99.90
1800;DHT22;919;48.274;12.292;2023-01-20T13:37:26;1.30;99.90
1800;DHT22;919;48.274;12.292;2023-01-20T13:39:56;1.30;99.90
1800;DHT22;919;48.274;12.292;2023-01-20T13:42:49;1.30;99.90
1800;DHT22;919;48.274;12.292;2023-01-20T13:45:21;1.20;99.90
1800;DHT22;919;48.274;12.292;2023-01-20T13:48:00;1.20;99.90
1800;DHT22;919;48.274;12.292;2023-01-20T13:50:30;1.30;99.90
1800;DHT22;919;48.274;12.292;2023-01-20T13:53:13;1.30;99.90
1800;DHT22;919;48.274;12.292;2023-01-20T13:55:53;1.30;99.90
1800;DHT22;919;48.274;12.292;2023-01-20T13:58:23;1.30;99.90
1800;DHT22;919;48.274;12.292;2023-01-20T14:00:51;1.30;99.90
1800;DHT22;919;48.274;12.292;2023-01-20T14:03:24;1.20;99.90
1800;DHT22;919;48.274;12.292;2023-01-20T14:05:53;1.20;99.90
1800;DHT22;919;48.274;12.292;2023-01-20T14:08:21;1.20;99.90
1800;DHT22;919;48.274;12.292;2023-01-20T14:10:48;1.10;99.90
1800;DHT22;919;48.274;12.292;2023-01-20T14:13:20;1.10;99.90
1800;DHT22;919;48.274;12.292;2023-01-20T14:15:50;1.10;99.90
1800;DHT22;919;48.274;12.292;2023-01-20T14:18:19;1.10;99.90
1800;DHT22;919;48.274;12.292;2023-01-20T14:21:01;1.00;99.90
1800;DHT22;919;48.274;12.292;2023-01-20T14:23:36;1.00;99.90
1800;DHT22;919;48.274;12.292;2023-01-20T14:26:08;1.00;99.90
1800;DHT22;919;48.274;12.292;2023-01-20T14:28:40;1.00;99.90
1800;DHT22;919;48.274;12.292;2023-01-20T14:31:21;1.10;99.90
1800;DHT22;919;48.274;12.292;2023-01-20T14:33:55;1.00;99.90
1800;DHT22;919;48.274;12.292;2023-01-20T14:36:26;1.00;99.90
1800;DHT22;919;48.274;12.292;2023-01-20T14:38:56;1.00;99.90
1800;DHT22;919;48.274;12.292;2023-01-20T14:41:29;0.90;99.90
1800;DHT22;919;48.274;12.292;2023-01-20T14:43:58;1.00;99.90
1800;DHT22;919;48.274;12.292;2023-01-20T14:46:32;0.90;99.90
1800;DHT22;919;48.274;12.292;2023-01-20T14:49:04;0.90;99.90
1800;DHT22;919;48.274;12.292;2023-01-20T14:51:36;0.90;99.90
1800;DHT22;919;48.274;12.292;2023-01-20T14:54:40;0.90;99.90
1800;DHT22;919;48.274;12.292;2023-01-20T14:57:23;0.90;99.90
1800;DHT22;919;48.274;12.292;2023-01-20T15:00:18;0.90;99.90
1800;DHT22;919;48.274;12.292;2023-01-20T15:02:49;0.90;99.90
1800;DHT22;919;48.274;12.292;2023-01-20T15:05:24;0.90;99.90
1800;DHT22;919;48.274;12.292;2023-01-20T15:08:16;0.80;99.90
1800;DHT22;919;48.274;12.292;2023-01-20T15:11:07;0.80;99.90
1800;DHT22;919;48.274;12.292;2023-01-20T15:13:36;0.70;99.90
1800;DHT22;919;48.274;12.292;2023-01-20T15:16:14;0.70;99.90
1800;DHT22;919;48.274;12.292;2023-01-20T15:18:44;0.70;99.90
1800;DHT22;919;48.274;12.292;2023-01-20T15:21:34;0.70;99.90
1800;DHT22;919;48.274;12.292;2023-01-20T15:24:14;0.70;99.90
1800;DHT22;919;48.274;12.292;2023-01-20T15:26:44;0.70;99.90
1800;DHT22;919;48.274;12.292;2023-01-20T15:29:19;0.70;99.90
1800;DHT22;919;48.274;12.292;2023-01-20T15:31:47;0.60;99.90
1800;DHT22;919;48.274;12.292;2023-01-20T15:34:15;0.60;99.90
1800;DHT22;919;48.274;12.292;2023-01-20T15:36:42;0.50;99.90
1800;DHT22;919;48.274;12.292;2023-01-20T15:39:10;0.50;99.90
1800;DHT22;919;48.274;12.292;2023-01-20T15:41:37;0.50;99.90
1800;DHT22;919;48.274;12.292;2023-01-20T15:44:04;0.50;99.90
1800;DHT22;919;48.274;12.292;2023-01-20T15:46:31;0.50;99.90
1800;DHT22;919;48.274;12.292;2023-01-20T15:48:57;0.50;99.90
1800;DHT22;919;48.274;12.292;2023-01-20T15:51:25;0.40;99.90
1800;DHT22;919;48.274;12.292;2023-01-20T15:53:53;0.40;99.90
1800;DHT22;919;48.274;12.292;2023-01-20T15:56:22;0.40;99.90
1800;DHT22;919;48.274;12.292;2023-01-20T15:58:49;0.50;99.90
1800;DHT22;919;48.274;12.292;2023-01-20T16:01:18;0.40;99.90
1800;DHT22;919;48.274;12.292;2023-01-20T16:03:45;0.40;99.90
1800;DHT22;919;48.274;12.292;2023-01-20T16:06:13;0.40;99.90
1800;DHT22;919;48.274;12.292;2023-01-20T16:08:44;0.30;99.90
1800;DHT22;919;48.274;12.292;2023-01-20T16:11:11;0.40;99.90
1800;DHT22;919;48.274;12.292;2023-01-20T16:13:38;0.40;99.90
1800;DHT22;919;48.274;12.292;2023-01-20T16:16:09;0.40;99.90
1800;DHT22;919;48.274;12.292;2023-01-20T16:18:37;0.30;99.90
1800;DHT22;919;48.274;12.292;2023-01-20T16:21:05;0.30;99.90
1800;DHT22;919;48.274;12.292;2023-01-20T16:23:31;0.30;99.90
1800;DHT22;919;48.274;12.292;2023-01-20T16:25:59;0.30;99.90
1800;DHT22;919;48.274;12.292;2023-01-20T16:28:26;0.30;99.90
1800;DHT22;919;48.274;12.292;2023-01-20T16:30:53;0.30;99.90
1800;DHT22;919;48.274;12.292;2023-01-20T16:33:23;0.30;99.90
1800;DHT22;919;48.274;12.292;2023-01-20T16:35:51;0.30;99.90
1800;DHT22;919;48.274;12.292;2023-01-20T16:38:19;0.30;99.90
1800;DHT22;919;48.274;12.292;2023-01-20T16:40:48;0.30;99.90